sensor_id;sensor_type;location;lat;lon;timestamp;pressure;altitude;pressure_sealevel;temperature;humidity
38058;BME280;23862;51.972;4.618;2022-08-11T00:01:56;-25614.78;;;19.46;100.00
38058;BME280;23862;51.972;4.618;2022-08-11T00:04:24;-25613.63;;;19.42;100.00
38058;BME280;23862;51.972;4.618;2022-08-11T00:06:50;-25613.63;;;19.42;100.00
38058;BME280;23862;51.972;4.618;2022-08-11T00:09:20;-25612.91;;;19.39;100.00
38058;BME280;23862;51.972;4.618;2022-08-11T00:11:47;-25611.88;;;19.35;100.00
38058;BME280;23862;51.972;4.618;2022-08-11T00:17:03;-25610.00;;;19.29;100.00
38058;BME280;23862;51.972;4.618;2022-08-11T00:19:29;-25608.56;;;19.24;100.00
38058;BME280;23862;51.972;4.618;2022-08-11T00:21:56;-25607.69;;;19.21;100.00
38058;BME280;23862;51.972;4.618;2022-08-11T00:24:22;-25605.09;;;19.11;100.00
38058;BME280;23862;51.972;4.618;2022-08-11T00:26:52;-25604.94;;;19.11;100.00
38058;BME280;23862;51.972;4.618;2022-08-11T00:29:18;-25603.78;;;19.07;100.00
38058;BME280;23862;51.972;4.618;2022-08-11T00:31:48;-25604.38;;;19.09;100.00
38058;BME280;23862;51.972;4.618;2022-08-11T00:34:17;-25604.81;;;19.10;100.00
38058;BME280;23862;51.972;4.618;2022-08-11T00:36:46;-25603.06;;;19.04;100.00
38058;BME280;23862;51.972;4.618;2022-08-11T00:39:13;-25603.06;;;19.04;100.00
38058;BME280;23862;51.972;4.618;2022-08-11T00:57:18;-25599.75;;;18.92;100.00
38058;BME280;23862;51.972;4.618;2022-08-11T01:00:04;-25597.72;;;18.85;100.00
38058;BME280;23862;51.972;4.618;2022-08-11T01:02:58;-25596.56;;;18.81;100.00
38058;BME280;23862;51.972;4.618;2022-08-11T01:13:33;-25593.81;;;18.71;100.00
38058;BME280;23862;51.972;4.618;2022-08-11T01:45:09;-25589.91;;;18.57;100.00
38058;BME280;23862;51.972;4.618;2022-08-11T01:55:44;-25587.31;;;18.48;100.00
38058;BME280;23862;51.972;4.618;2022-08-11T01:58:32;-25585.44;;;18.41;100.00
38058;BME280;23862;51.972;4.618;2022-08-11T02:01:22;-25585.13;;;18.40;100.00
38058;BME280;23862;51.972;4.618;2022-08-11T02:06:52;-25583.69;;;18.35;100.00
38058;BME280;23862;51.972;4.618;2022-08-11T02:09:42;-25583.25;;;18.34;100.00
38058;BME280;23862;51.972;4.618;2022-08-11T02:12:21;-25582.41;;;18.30;100.00
38058;BME280;23862;51.972;4.618;2022-08-11T02:15:12;-25581.53;;;18.27;100.00
38058;BME280;23862;51.972;4.618;2022-08-11T02:20:24;-25581.53;;;18.27;100.00
38058;BME280;23862;51.972;4.618;2022-08-11T02:28:34;-25578.63;;;18.17;100.00
38058;BME280;23862;51.972;4.618;2022-08-11T02:31:37;-25577.47;;;18.13;100.00
38058;BME280;23862;51.972;4.618;2022-08-11T02:36:56;-25576.75;;;18.10;100.00
38058;BME280;23862;51.972;4.618;2022-08-11T02:39:28;-25576.75;;;18.10;100.00
38058;BME280;23862;51.972;4.618;2022-08-11T02:44:45;-25573.56;;;17.99;100.00
38058;BME280;23862;51.972;4.618;2022-08-11T02:50:22;-25571.97;;;17.93;100.00
38058;BME280;23862;51.972;4.618;2022-08-11T02:55:21;-25569.38;;;17.84;100.00
38058;BME280;23862;51.972;4.618;2022-08-11T03:00:40;-25568.34;;;17.81;100.00
38058;BME280;23862;51.972;4.618;2022-08-11T03:03:12;-25566.19;;;17.73;100.00
38058;BME280;23862;51.972;4.618;2022-08-11T03:05:57;-25565.75;;;17.71;100.00
38058;BME280;23862;51.972;4.618;2022-08-11T03:11:11;-25565.31;;;17.70;100.00
38058;BME280;23862;51.972;4.618;2022-08-11T03:13:58;-25563.72;;;17.64;100.00
38058;BME280;23862;51.972;4.618;2022-08-11T03:16:57;-25563.00;;;17.62;100.00
38058;BME280;23862;51.972;4.618;2022-08-11T03:19:32;-25563.41;;;17.63;100.00
38058;BME280;23862;51.972;4.618;2022-08-11T03:32:29;-25561.84;;;17.57;100.00
38058;BME280;23862;51.972;4.618;2022-08-11T03:34:57;-25560.38;;;17.52;100.00
38058;BME280;23862;51.972;4.618;2022-08-11T03:43:32;-25560.81;;;17.54;100.00
38058;BME280;23862;51.972;4.618;2022-08-11T04:07:54;-25556.63;;;17.39;100.00
38058;BME280;23862;51.972;4.618;2022-08-11T04:10:47;-25555.75;;;17.36;100.00
38058;BME280;23862;51.972;4.618;2022-08-11T04:13:27;-25555.31;;;17.34;100.00
38058;BME280;23862;51.972;4.618;2022-08-11T04:16:09;-25555.16;;;17.34;100.00
38058;BME280;23862;51.972;4.618;2022-08-11T04:21:25;-25552.69;;;17.25;100.00
38058;BME280;23862;51.972;4.618;2022-08-11T04:24:10;-25552.13;;;17.23;100.00
38058;BME280;23862;51.972;4.618;2022-08-11T04:27:00;-25552.13;;;17.23;100.00
38058;BME280;23862;51.972;4.618;2022-08-11T04:34:47;-25555.16;;;17.34;100.00
38058;BME280;23862;51.972;4.618;2022-08-11T04:45:50;-25555.31;;;17.34;100.00
38058;BME280;23862;51.972;4.618;2022-08-11T04:56:34;-25577.91;;;18.15;100.00
38058;BME280;23862;51.972;4.618;2022-08-11T04:59:33;-24261.28;;;18.40;100.00
38058;BME280;23862;51.972;4.618;2022-08-11T05:02:29;-18310.44;;;18.61;100.00
38058;BME280;23862;51.972;4.618;2022-08-11T05:13:05;-7698.44;;;19.04;100.00
38058;BME280;23862;51.972;4.618;2022-08-11T05:18:40;21423.97;;;21.28;100.00
38058;BME280;23862;51.972;4.618;2022-08-11T05:21:28;60257.13;;;21.29;100.00
38058;BME280;23862;51.972;4.618;2022-08-11T05:24:36;94233.34;;;20.66;100.00
38058;BME280;23862;51.972;4.618;2022-08-11T05:27:18;103097.75;;;20.47;100.00
38058;BME280;23862;51.972;4.618;2022-08-11T05:30:06;120910.53;;;20.28;100.00
38058;BME280;23862;51.972;4.618;2022-08-11T05:32:59;108540.03;;;20.24;100.00
38058;BME280;23862;51.972;4.618;2022-08-11T05:35:46;110934.03;;;20.20;100.00
38058;BME280;23862;51.972;4.618;2022-08-11T05:38:25;109909.84;;;20.23;100.00
38058;BME280;23862;51.972;4.618;2022-08-11T05:41:11;116126.75;;;20.42;100.00
38058;BME280;23862;51.972;4.618;2022-08-11T05:43:56;137862.59;;;20.56;100.00
38058;BME280;23862;51.972;4.618;2022-08-11T05:46:41;146660.94;;;20.37;100.00
38058;BME280;23862;51.972;4.618;2022-08-11T05:49:28;140604.31;;;20.46;100.00
38058;BME280;23862;51.972;4.618;2022-08-11T05:52:15;145601.75;;;20.95;100.00
38058;BME280;23862;51.972;4.618;2022-08-11T05:55:01;148264.78;;;22.05;100.00
38058;BME280;23862;51.972;4.618;2022-08-11T05:57:46;148617.72;;;23.47;100.00
38058;BME280;23862;51.972;4.618;2022-08-11T06:00:11;148976.13;;;24.90;100.00
38058;BME280;23862;51.972;4.618;2022-08-11T06:02:42;149247.44;;;25.99;100.00
38058;BME280;23862;51.972;4.618;2022-08-11T06:05:08;149296.34;;;26.19;100.00
38058;BME280;23862;51.972;4.618;2022-08-11T06:07:34;149082.88;;;25.33;100.00
38058;BME280;23862;51.972;4.618;2022-08-11T06:10:00;148816.78;;;24.27;100.00
38058;BME280;23862;51.972;4.618;2022-08-11T06:12:30;148450.84;;;22.80;100.00
38058;BME280;23862;51.972;4.618;2022-08-11T06:14:57;148327.66;;;22.31;100.00
38058;BME280;23862;51.972;4.618;2022-08-11T06:17:26;148251.97;;;22.00;100.00
38058;BME280;23862;51.972;4.618;2022-08-11T06:19:57;148222.44;;;21.88;100.00
38058;BME280;23862;51.972;4.618;2022-08-11T06:22:23;148295.56;;;22.18;100.00
38058;BME280;23862;51.972;4.618;2022-08-11T06:24:56;148271.19;;;22.08;100.00
38058;BME280;23862;51.972;4.618;2022-08-11T06:27:23;148139.13;;;21.55;100.00
38058;BME280;23862;51.972;4.618;2022-08-11T06:29:50;148060.84;;;21.24;100.00
38058;BME280;23862;51.972;4.618;2022-08-11T06:32:16;148027.53;;;21.10;100.00
38058;BME280;23862;51.972;4.618;2022-08-11T06:45:02;148200.69;;;21.80;100.00
38058;BME280;23862;51.972;4.618;2022-08-11T06:47:31;148450.84;;;22.80;100.00
38058;BME280;23862;51.972;4.618;2022-08-11T06:49:57;148642.09;;;23.57;100.00
38058;BME280;23862;51.972;4.618;2022-08-11T06:52:41;148522.78;;;23.09;100.00
38058;BME280;23862;51.972;4.618;2022-08-11T06:55:14;148310.94;;;22.24;100.00
38058;BME280;23862;51.972;4.618;2022-08-11T06:58:05;148281.44;;;22.12;100.00
38058;BME280;23862;51.972;4.618;2022-08-11T07:00:54;148213.50;;;21.85;100.00
38058;BME280;23862;51.972;4.618;2022-08-11T07:03:27;148228.88;;;21.91;100.00
38058;BME280;23862;51.972;4.618;2022-08-11T07:06:01;148277.59;;;22.11;100.00
38058;BME280;23862;51.972;4.618;2022-08-11T07:14:18;148558.69;;;23.23;100.00
38058;BME280;23862;51.972;4.618;2022-08-11T07:17:03;148635.72;;;23.54;100.00
38058;BME280;23862;51.972;4.618;2022-08-11T07:19:31;148814.25;;;24.26;100.00
38058;BME280;23862;51.972;4.618;2022-08-11T07:22:16;149095.72;;;25.38;100.00
38058;BME280;23862;51.972;4.618;2022-08-11T07:25:04;149055.81;;;25.22;100.00
38058;BME280;23862;51.972;4.618;2022-08-11T07:27:54;149030.09;;;25.12;100.00
38058;BME280;23862;51.972;4.618;2022-08-11T07:30:39;149069.97;;;25.28;100.00
38058;BME280;23862;51.972;4.618;2022-08-11T07:33:06;149124.03;;;25.50;100.00
38058;BME280;23862;51.972;4.618;2022-08-11T07:35:37;149152.28;;;25.61;100.00
38058;BME280;23862;51.972;4.618;2022-08-11T07:38:07;149431.44;;;26.73;100.00
38058;BME280;23862;51.972;4.618;2022-08-11T07:40:35;149454.59;;;26.82;100.00
38058;BME280;23862;51.972;4.618;2022-08-11T07:43:03;149521.50;;;27.09;100.00
38058;BME280;23862;51.972;4.618;2022-08-11T07:45:30;149373.50;;;26.49;100.00
38058;BME280;23862;51.972;4.618;2022-08-11T07:48:15;149777.72;;;28.11;100.00
38058;BME280;23862;51.972;4.618;2022-08-11T07:51:00;149833.06;;;28.33;100.00
38058;BME280;23862;51.972;4.618;2022-08-11T07:53:44;149940.00;;;28.76;100.00
38058;BME280;23862;51.972;4.618;2022-08-11T07:56:09;150021.13;;;29.08;100.00
38058;BME280;23862;51.972;4.618;2022-08-11T07:58:40;149912.94;;;28.65;100.00
38058;BME280;23862;51.972;4.618;2022-08-11T08:01:24;149958.03;;;28.83;100.00
38058;BME280;23862;51.972;4.618;2022-08-11T08:04:11;150041.78;;;29.16;100.00
38058;BME280;23862;51.972;4.618;2022-08-11T08:06:55;149927.13;;;28.71;100.00
38058;BME280;23862;51.972;4.618;2022-08-11T08:09:40;149912.94;;;28.65;100.00
38058;BME280;23862;51.972;4.618;2022-08-11T08:12:25;149921.97;;;28.69;100.00
38058;BME280;23862;51.972;4.618;2022-08-11T08:15:10;149719.72;;;27.88;100.00
38058;BME280;23862;51.972;4.618;2022-08-11T08:17:54;149770.00;;;28.08;100.00
38058;BME280;23862;51.972;4.618;2022-08-11T08:20:29;149862.72;;;28.45;100.00
38058;BME280;23862;51.972;4.618;2022-08-11T08:22:55;149955.44;;;28.82;100.00
38058;BME280;23862;51.972;4.618;2022-08-11T08:25:25;150120.41;;;29.48;100.00
38058;BME280;23862;51.972;4.618;2022-08-11T08:27:51;150080.50;;;29.32;100.00
38058;BME280;23862;51.972;4.618;2022-08-11T08:30:17;150061.16;;;29.24;100.00
38058;BME280;23862;51.972;4.618;2022-08-11T08:33:01;149952.91;;;28.81;100.00
38058;BME280;23862;51.972;4.618;2022-08-11T08:35:27;149970.91;;;28.88;100.00
38058;BME280;23862;51.972;4.618;2022-08-11T08:37:54;149982.50;;;28.93;100.00
38058;BME280;23862;51.972;4.618;2022-08-11T08:40:20;150030.19;;;29.12;100.00
38058;BME280;23862;51.972;4.618;2022-08-11T08:42:49;150071.44;;;29.28;100.00
38058;BME280;23862;51.972;4.618;2022-08-11T08:45:17;150165.50;;;29.66;100.00
38058;BME280;23862;51.972;4.618;2022-08-11T08:47:47;150081.75;;;29.32;100.00
38058;BME280;23862;51.972;4.618;2022-08-11T08:50:16;150092.03;;;29.36;100.00
38058;BME280;23862;51.972;4.618;2022-08-11T08:53:06;150148.75;;;29.59;100.00
38058;BME280;23862;51.972;4.618;2022-08-11T08:55:30;150312.47;;;30.24;100.00
38058;BME280;23862;51.972;4.618;2022-08-11T08:57:57;150103.63;;;29.41;100.00
38058;BME280;23862;51.972;4.618;2022-08-11T09:00:24;150079.16;;;29.31;100.00
38058;BME280;23862;51.972;4.618;2022-08-11T09:03:01;149931.00;;;28.72;100.00
38058;BME280;23862;51.972;4.618;2022-08-11T09:05:26;150084.34;;;29.33;100.00
38058;BME280;23862;51.972;4.618;2022-08-11T09:07:52;150106.22;;;29.42;100.00
38058;BME280;23862;51.972;4.618;2022-08-11T09:10:18;150058.56;;;29.23;100.00
38058;BME280;23862;51.972;4.618;2022-08-11T09:12:44;150106.22;;;29.42;100.00
38058;BME280;23862;51.972;4.618;2022-08-11T09:15:10;150150.03;;;29.60;100.00
38058;BME280;23862;51.972;4.618;2022-08-11T09:20:12;150117.81;;;29.47;100.00
38058;BME280;23862;51.972;4.618;2022-08-11T09:22:40;150224.88;;;29.89;100.00
38058;BME280;23862;51.972;4.618;2022-08-11T09:25:25;150228.72;;;29.91;100.00
38058;BME280;23862;51.972;4.618;2022-08-11T09:28:10;150137.16;;;29.54;100.00
38058;BME280;23862;51.972;4.618;2022-08-11T09:30:35;150132.03;;;29.52;100.00
38058;BME280;23862;51.972;4.618;2022-08-11T09:33:03;149871.72;;;28.48;100.00
38058;BME280;23862;51.972;4.618;2022-08-11T09:35:29;149943.84;;;28.77;100.00
38058;BME280;23862;51.972;4.618;2022-08-11T09:37:56;150026.31;;;29.10;100.00
38058;BME280;23862;51.972;4.618;2022-08-11T09:40:41;149956.75;;;28.82;100.00
38058;BME280;23862;51.972;4.618;2022-08-11T09:43:23;149914.25;;;28.65;100.00
38058;BME280;23862;51.972;4.618;2022-08-11T09:46:08;149931.00;;;28.72;100.00
38058;BME280;23862;51.972;4.618;2022-08-11T09:48:35;149856.25;;;28.42;100.00
38058;BME280;23862;51.972;4.618;2022-08-11T09:51:01;149888.44;;;28.55;100.00
38058;BME280;23862;51.972;4.618;2022-08-11T09:53:29;149845.94;;;28.38;100.00
38058;BME280;23862;51.972;4.618;2022-08-11T09:55:55;149803.44;;;28.21;100.00
38058;BME280;23862;51.972;4.618;2022-08-11T09:58:21;149775.13;;;28.10;100.00
38058;BME280;23862;51.972;4.618;2022-08-11T10:00:47;149891.03;;;28.56;100.00
38058;BME280;23862;51.972;4.618;2022-08-11T10:03:23;150030.19;;;29.12;100.00
38058;BME280;23862;51.972;4.618;2022-08-11T10:05:57;149866.56;;;28.46;100.00
38058;BME280;23862;51.972;4.618;2022-08-11T10:08:42;149945.16;;;28.78;100.00
38058;BME280;23862;51.972;4.618;2022-08-11T10:11:11;149911.66;;;28.64;100.00
38058;BME280;23862;51.972;4.618;2022-08-11T10:13:40;149952.91;;;28.81;100.00
38058;BME280;23862;51.972;4.618;2022-08-11T10:16:25;149958.03;;;28.83;100.00
38058;BME280;23862;51.972;4.618;2022-08-11T10:18:52;150001.81;;;29.00;100.00
38058;BME280;23862;51.972;4.618;2022-08-11T10:23:49;149912.94;;;28.65;100.00
38058;BME280;23862;51.972;4.618;2022-08-11T10:26:34;149955.44;;;28.82;100.00
38058;BME280;23862;51.972;4.618;2022-08-11T10:29:31;149929.72;;;28.72;100.00
38058;BME280;23862;51.972;4.618;2022-08-11T10:32:22;149987.69;;;28.95;100.00
38058;BME280;23862;51.972;4.618;2022-08-11T10:35:07;149999.28;;;28.99;100.00
38058;BME280;23862;51.972;4.618;2022-08-11T10:37:33;150016.00;;;29.06;100.00
38058;BME280;23862;51.972;4.618;2022-08-11T10:40:01;150004.41;;;29.01;100.00
38058;BME280;23862;51.972;4.618;2022-08-11T10:42:27;150022.47;;;29.09;100.00
38058;BME280;23862;51.972;4.618;2022-08-11T10:45:12;150092.03;;;29.36;100.00
38058;BME280;23862;51.972;4.618;2022-08-11T10:47:56;150137.16;;;29.54;100.00
38058;BME280;23862;51.972;4.618;2022-08-11T10:50:23;150137.16;;;29.54;100.00
38058;BME280;23862;51.972;4.618;2022-08-11T10:53:09;150116.56;;;29.46;100.00
38058;BME280;23862;51.972;4.618;2022-08-11T10:55:53;150090.78;;;29.36;100.00
38058;BME280;23862;51.972;4.618;2022-08-11T10:58:38;150121.69;;;29.48;100.00
38058;BME280;23862;51.972;4.618;2022-08-11T11:01:26;150093.34;;;29.37;100.00
38058;BME280;23862;51.972;4.618;2022-08-11T11:03:57;150146.16;;;29.58;100.00
38058;BME280;23862;51.972;4.618;2022-08-11T11:06:32;150138.44;;;29.55;100.00
38058;BME280;23862;51.972;4.618;2022-08-11T11:09:04;150175.81;;;29.70;100.00
38058;BME280;23862;51.972;4.618;2022-08-11T11:11:33;150138.44;;;29.55;100.00
38058;BME280;23862;51.972;4.618;2022-08-11T11:14:18;150093.34;;;29.37;100.00
38058;BME280;23862;51.972;4.618;2022-08-11T11:17:04;150122.97;;;29.49;100.00
38058;BME280;23862;51.972;4.618;2022-08-11T11:19:35;150179.69;;;29.71;99.26
38058;BME280;23862;51.972;4.618;2022-08-11T11:22:02;150159.09;;;29.63;98.81
38058;BME280;23862;51.972;4.618;2022-08-11T11:25:13;150168.09;;;29.67;97.75
38058;BME280;23862;51.972;4.618;2022-08-11T11:27:47;150202.94;;;29.81;95.53
38058;BME280;23862;51.972;4.618;2022-08-11T11:30:14;150232.59;;;29.93;97.24
38058;BME280;23862;51.972;4.618;2022-08-11T11:32:45;150356.34;;;30.42;91.96
38058;BME280;23862;51.972;4.618;2022-08-11T11:35:19;150321.50;;;30.28;83.57
38058;BME280;23862;51.972;4.618;2022-08-11T11:37:50;150380.88;;;30.52;90.49
38058;BME280;23862;51.972;4.618;2022-08-11T11:40:17;150471.13;;;30.88;85.11
38058;BME280;23862;51.972;4.618;2022-08-11T11:42:47;150288.00;;;30.15;83.43
38058;BME280;23862;51.972;4.618;2022-08-11T11:45:18;150291.88;;;30.16;86.75
38058;BME280;23862;51.972;4.618;2022-08-11T11:47:44;150188.69;;;29.75;86.17
38058;BME280;23862;51.972;4.618;2022-08-11T11:50:09;150179.69;;;29.71;89.91
38058;BME280;23862;51.972;4.618;2022-08-11T11:55:06;150361.53;;;30.44;94.60
38058;BME280;23862;51.972;4.618;2022-08-11T11:57:32;150450.53;;;30.79;94.33
38058;BME280;23862;51.972;4.618;2022-08-11T12:00:16;150440.19;;;30.75;82.83
38058;BME280;23862;51.972;4.618;2022-08-11T12:03:01;150468.53;;;30.87;87.04
38058;BME280;23862;51.972;4.618;2022-08-11T12:05:27;150379.56;;;30.51;85.00
38058;BME280;23862;51.972;4.618;2022-08-11T12:07:55;150360.22;;;30.43;85.63
38058;BME280;23862;51.972;4.618;2022-08-11T12:10:43;150329.22;;;30.31;83.68
38058;BME280;23862;51.972;4.618;2022-08-11T12:13:11;150302.16;;;30.20;83.70
38058;BME280;23862;51.972;4.618;2022-08-11T12:15:56;150303.47;;;30.21;82.66
38058;BME280;23862;51.972;4.618;2022-08-11T12:18:21;150334.41;;;30.33;81.63
38058;BME280;23862;51.972;4.618;2022-08-11T12:20:47;150351.22;;;30.40;78.93
38058;BME280;23862;51.972;4.618;2022-08-11T12:23:13;150334.41;;;30.33;81.17
38058;BME280;23862;51.972;4.618;2022-08-11T12:25:58;150370.56;;;30.48;82.81
38058;BME280;23862;51.972;4.618;2022-08-11T12:28:42;150297.03;;;30.18;79.53
38058;BME280;23862;51.972;4.618;2022-08-11T12:31:08;150300.88;;;30.20;76.98
38058;BME280;23862;51.972;4.618;2022-08-11T12:33:37;150316.34;;;30.26;81.53
38058;BME280;23862;51.972;4.618;2022-08-11T12:36:05;150361.53;;;30.44;84.80
38058;BME280;23862;51.972;4.618;2022-08-11T12:38:32;150371.81;;;30.48;80.25
38058;BME280;23862;51.972;4.618;2022-08-11T12:40:59;150440.19;;;30.75;82.22
38058;BME280;23862;51.972;4.618;2022-08-11T12:43:44;150455.66;;;30.82;76.75
38058;BME280;23862;51.972;4.618;2022-08-11T12:46:30;150366.69;;;30.46;68.33
38058;BME280;23862;51.972;4.618;2022-08-11T12:48:57;150331.81;;;30.32;74.37
38058;BME280;23862;51.972;4.618;2022-08-11T12:51:46;150365.41;;;30.46;71.84
38058;BME280;23862;51.972;4.618;2022-08-11T12:54:28;150293.16;;;30.17;71.73
38058;BME280;23862;51.972;4.618;2022-08-11T12:56:57;150367.97;;;30.47;76.05
38058;BME280;23862;51.972;4.618;2022-08-11T12:59:42;150362.81;;;30.45;70.38
38058;BME280;23862;51.972;4.618;2022-08-11T13:02:28;150391.16;;;30.56;68.27
38058;BME280;23862;51.972;4.618;2022-08-11T13:05:12;150391.16;;;30.56;64.17
38058;BME280;23862;51.972;4.618;2022-08-11T13:07:39;150502.13;;;31.00;68.48
38058;BME280;23862;51.972;4.618;2022-08-11T13:10:07;150472.41;;;30.88;61.35
38058;BME280;23862;51.972;4.618;2022-08-11T13:12:38;150436.31;;;30.74;67.45
38058;BME280;23862;51.972;4.618;2022-08-11T13:15:14;150429.84;;;30.71;65.95
38058;BME280;23862;51.972;4.618;2022-08-11T13:17:41;150438.91;;;30.75;66.21
38058;BME280;23862;51.972;4.618;2022-08-11T13:20:08;150398.91;;;30.59;64.92
38058;BME280;23862;51.972;4.618;2022-08-11T13:22:36;150392.50;;;30.56;62.80
38058;BME280;23862;51.972;4.618;2022-08-11T13:25:02;150433.72;;;30.73;61.88
38058;BME280;23862;51.972;4.618;2022-08-11T13:27:28;150455.66;;;30.82;69.50
38058;BME280;23862;51.972;4.618;2022-08-11T13:29:54;150405.38;;;30.61;65.65
38058;BME280;23862;51.972;4.618;2022-08-11T13:32:39;150427.31;;;30.70;69.64
38058;BME280;23862;51.972;4.618;2022-08-11T13:35:06;150522.75;;;31.08;67.06
38058;BME280;23862;51.972;4.618;2022-08-11T13:37:32;150473.69;;;30.89;68.01
38058;BME280;23862;51.972;4.618;2022-08-11T13:39:59;150460.81;;;30.84;68.73
38058;BME280;23862;51.972;4.618;2022-08-11T13:42:26;150425.97;;;30.70;70.03
38058;BME280;23862;51.972;4.618;2022-08-11T13:44:52;150352.50;;;30.40;68.37
38058;BME280;23862;51.972;4.618;2022-08-11T13:47:17;150416.97;;;30.66;69.89
38058;BME280;23862;51.972;4.618;2022-08-11T13:49:46;150463.41;;;30.85;73.87
38058;BME280;23862;51.972;4.618;2022-08-11T13:52:12;150471.13;;;30.88;72.21
38058;BME280;23862;51.972;4.618;2022-08-11T13:54:40;150496.94;;;30.98;69.53
38058;BME280;23862;51.972;4.618;2022-08-11T13:57:06;150494.41;;;30.97;72.31
38058;BME280;23862;51.972;4.618;2022-08-11T13:59:32;150511.16;;;31.04;70.64
38058;BME280;23862;51.972;4.618;2022-08-11T14:01:59;150449.19;;;30.79;67.88
38058;BME280;23862;51.972;4.618;2022-08-11T14:04:29;150391.16;;;30.56;68.04
38058;BME280;23862;51.972;4.618;2022-08-11T14:06:55;150396.38;;;30.58;68.06
38058;BME280;23862;51.972;4.618;2022-08-11T14:09:24;150422.13;;;30.68;69.52
38058;BME280;23862;51.972;4.618;2022-08-11T14:11:50;150451.78;;;30.80;70.38
38058;BME280;23862;51.972;4.618;2022-08-11T14:14:37;150456.94;;;30.82;76.25
38058;BME280;23862;51.972;4.618;2022-08-11T14:17:05;150480.16;;;30.91;73.25
38058;BME280;23862;51.972;4.618;2022-08-11T14:19:34;150507.28;;;31.02;71.77
38058;BME280;23862;51.972;4.618;2022-08-11T14:22:01;150558.88;;;31.23;72.20
38058;BME280;23862;51.972;4.618;2022-08-11T14:24:37;150481.41;;;30.92;72.07
38058;BME280;23862;51.972;4.618;2022-08-11T14:27:03;150419.56;;;30.67;69.31
38058;BME280;23862;51.972;4.618;2022-08-11T14:29:29;150432.44;;;30.72;67.72
38058;BME280;23862;51.972;4.618;2022-08-11T14:32:00;150489.16;;;30.95;74.29
38058;BME280;23862;51.972;4.618;2022-08-11T14:34:30;150451.78;;;30.80;68.63
38058;BME280;23862;51.972;4.618;2022-08-11T14:37:01;150460.81;;;30.84;72.88
38058;BME280;23862;51.972;4.618;2022-08-11T14:39:29;150445.31;;;30.77;69.96
38058;BME280;23862;51.972;4.618;2022-08-11T14:42:00;150454.38;;;30.81;71.04
38058;BME280;23862;51.972;4.618;2022-08-11T14:44:46;150476.28;;;30.90;71.17
38058;BME280;23862;51.972;4.618;2022-08-11T14:47:35;150451.78;;;30.80;81.90
38058;BME280;23862;51.972;4.618;2022-08-11T14:50:01;150469.81;;;30.87;90.34
38058;BME280;23862;51.972;4.618;2022-08-11T14:52:27;150478.88;;;30.91;92.99
38058;BME280;23862;51.972;4.618;2022-08-11T14:54:55;150427.31;;;30.70;96.07
38058;BME280;23862;51.972;4.618;2022-08-11T14:57:42;150386.03;;;30.54;98.74
38058;BME280;23862;51.972;4.618;2022-08-11T15:00:09;150358.94;;;30.43;100.00
38058;BME280;23862;51.972;4.618;2022-08-11T15:02:37;150347.28;;;30.38;100.00
38058;BME280;23862;51.972;4.618;2022-08-11T15:05:22;150371.81;;;30.48;100.00
38058;BME280;23862;51.972;4.618;2022-08-11T15:07:48;150331.81;;;30.32;100.00
38058;BME280;23862;51.972;4.618;2022-08-11T15:10:15;150325.38;;;30.30;100.00
38058;BME280;23862;51.972;4.618;2022-08-11T15:12:46;150325.38;;;30.30;100.00
38058;BME280;23862;51.972;4.618;2022-08-11T15:15:12;150293.16;;;30.17;100.00
38058;BME280;23862;51.972;4.618;2022-08-11T15:17:57;150289.28;;;30.15;100.00
38058;BME280;23862;51.972;4.618;2022-08-11T15:20:24;150262.22;;;30.04;100.00
38058;BME280;23862;51.972;4.618;2022-08-11T15:23:10;150257.06;;;30.02;100.00
38058;BME280;23862;51.972;4.618;2022-08-11T15:26:08;150233.88;;;29.93;100.00
38058;BME280;23862;51.972;4.618;2022-08-11T15:28:41;150246.75;;;29.98;100.00
38058;BME280;23862;51.972;4.618;2022-08-11T15:31:27;150312.47;;;30.24;100.00
38058;BME280;23862;51.972;4.618;2022-08-11T15:34:01;150303.47;;;30.21;100.00
38058;BME280;23862;51.972;4.618;2022-08-11T15:36:46;150271.25;;;30.08;100.00
38058;BME280;23862;51.972;4.618;2022-08-11T15:39:35;150276.41;;;30.10;100.00
38058;BME280;23862;51.972;4.618;2022-08-11T15:42:03;150262.22;;;30.04;100.00
38058;BME280;23862;51.972;4.618;2022-08-11T15:44:52;150227.41;;;29.90;100.00
38058;BME280;23862;51.972;4.618;2022-08-11T15:47:44;150159.09;;;29.63;100.00
38058;BME280;23862;51.972;4.618;2022-08-11T15:50:12;150170.69;;;29.68;100.00
38058;BME280;23862;51.972;4.618;2022-08-11T15:55:07;150188.69;;;29.75;100.00
38058;BME280;23862;51.972;4.618;2022-08-11T15:57:33;150143.63;;;29.57;100.00
38058;BME280;23862;51.972;4.618;2022-08-11T16:00:17;150141.03;;;29.56;100.00
38058;BME280;23862;51.972;4.618;2022-08-11T16:03:03;150125.56;;;29.50;100.00
38058;BME280;23862;51.972;4.618;2022-08-11T16:05:50;150144.88;;;29.58;100.00
38058;BME280;23862;51.972;4.618;2022-08-11T16:08:16;150151.34;;;29.60;100.00
38058;BME280;23862;51.972;4.618;2022-08-11T16:10:46;150164.22;;;29.65;100.00
38058;BME280;23862;51.972;4.618;2022-08-11T16:13:13;150146.16;;;29.58;100.00
38058;BME280;23862;51.972;4.618;2022-08-11T16:15:39;150112.69;;;29.45;100.00
38058;BME280;23862;51.972;4.618;2022-08-11T16:18:26;150086.91;;;29.34;100.00
38058;BME280;23862;51.972;4.618;2022-08-11T16:21:04;150067.56;;;29.27;100.00
38058;BME280;23862;51.972;4.618;2022-08-11T16:23:32;150061.16;;;29.24;100.00
38058;BME280;23862;51.972;4.618;2022-08-11T16:25:58;150066.31;;;29.26;100.00
38058;BME280;23862;51.972;4.618;2022-08-11T16:28:24;150037.91;;;29.15;100.00
38058;BME280;23862;51.972;4.618;2022-08-11T16:30:50;150043.06;;;29.17;100.00
38058;BME280;23862;51.972;4.618;2022-08-11T16:33:19;150025.00;;;29.10;100.00